createdAt,value
2019-02-19T00:01:25.866Z,38.90
2019-02-19T00:03:53.648Z,32.03
2019-02-19T00:06:21.442Z,29.43
2019-02-19T00:08:49.502Z,29.60
2019-02-19T00:11:17.271Z,30.00
2019-02-19T00:13:45.038Z,24.70
2019-02-19T00:16:15.841Z,33.60
2019-02-19T00:18:43.935Z,31.30
2019-02-19T00:21:11.694Z,31.37
2019-02-19T00:23:39.526Z,26.90
2019-02-19T00:26:18.099Z,23.43
2019-02-19T00:28:46.148Z,24.70
2019-02-19T00:31:13.959Z,24.80
2019-02-19T00:33:41.895Z,28.40
2019-02-19T00:36:09.711Z,25.80
2019-02-19T00:38:37.543Z,26.17
2019-02-19T00:41:07.342Z,30.63
2019-02-19T00:43:35.519Z,26.73
2019-02-19T00:46:03.761Z,25.73
2019-02-19T00:48:33.518Z,29.93
2019-02-19T00:51:01.447Z,26.73
2019-02-19T00:53:29.260Z,24.57
2019-02-19T00:55:57.336Z,25.63
2019-02-19T00:58:25.204Z,20.40
2019-02-19T01:00:53.063Z,22.33
2019-02-19T01:03:23.492Z,17.67
2019-02-19T01:05:54.761Z,17.23
2019-02-19T01:08:22.655Z,19.50
2019-02-19T01:10:52.451Z,18.57
2019-02-19T01:13:20.534Z,18.07
2019-02-19T01:15:48.596Z,15.53
2019-02-19T01:18:16.793Z,15.67
2019-02-19T01:20:46.587Z,15.60
2019-02-19T01:23:14.397Z,19.67
2019-02-19T01:25:42.255Z,21.77
2019-02-19T01:28:10.196Z,17.20
2019-02-19T01:30:38.302Z,19.13
2019-02-19T01:33:06.154Z,14.43
2019-02-19T01:35:34.448Z,17.57
2019-02-19T01:38:02.307Z,18.10
2019-02-19T01:40:30.217Z,17.33
2019-02-19T01:42:58.679Z,15.60
2019-02-19T01:45:33.915Z,14.80
2019-02-19T01:47:58.940Z,17.60
2019-02-19T01:50:26.728Z,17.57
2019-02-19T01:52:54.676Z,17.43
2019-02-19T01:55:22.520Z,15.40
2019-02-19T01:57:50.384Z,16.13
2019-02-19T02:00:18.367Z,19.40
2019-02-19T02:02:46.439Z,22.90
2019-02-19T02:05:14.335Z,21.13
2019-02-19T02:07:43.337Z,19.20
2019-02-19T02:10:11.325Z,23.30
2019-02-19T02:12:39.355Z,19.97
2019-02-19T02:15:07.443Z,20.90
2019-02-19T02:17:35.397Z,20.27
2019-02-19T02:20:03.784Z,25.17
2019-02-19T02:22:31.754Z,26.63
2019-02-19T02:24:59.546Z,23.23
2019-02-19T02:27:27.311Z,22.00
2019-02-19T02:29:55.267Z,21.37
2019-02-19T02:32:23.171Z,21.30
2019-02-19T02:34:51.167Z,25.47
2019-02-19T02:37:19.191Z,25.40
2019-02-19T02:39:48.056Z,27.77
2019-02-19T02:42:16.037Z,26.07
2019-02-19T02:44:43.936Z,24.23
2019-02-19T02:47:12.106Z,22.27
2019-02-19T02:49:39.884Z,23.83
2019-02-19T02:52:07.643Z,29.77
2019-02-19T02:54:35.612Z,26.10
2019-02-19T02:57:03.420Z,22.53
2019-02-19T02:59:31.358Z,27.80
2019-02-19T03:01:59.131Z,22.53
2019-02-19T03:04:26.921Z,22.93
2019-02-19T03:07:14.931Z,26.43
2019-02-19T03:09:42.707Z,28.10
2019-02-19T03:12:10.477Z,23.80
2019-02-19T03:14:38.411Z,25.43
2019-02-19T03:17:06.198Z,23.53
2019-02-19T03:19:33.977Z,25.97
2019-02-19T03:22:01.957Z,18.97
2019-02-19T03:24:29.749Z,24.40
2019-02-19T03:26:57.536Z,20.33
2019-02-19T03:29:25.486Z,22.30
2019-02-19T03:31:53.239Z,25.00
2019-02-19T03:34:21.418Z,20.97
2019-02-19T03:36:49.191Z,20.13
2019-02-19T03:39:17.150Z,18.13
2019-02-19T03:41:44.909Z,19.37
2019-02-19T03:44:12.668Z,17.20
2019-02-19T03:46:40.671Z,25.20
2019-02-19T03:49:08.429Z,19.77
2019-02-19T03:51:36.192Z,17.83
2019-02-19T03:54:04.069Z,27.60
2019-02-19T03:56:32.046Z,26.40
2019-02-19T03:59:00.019Z,17.97
2019-02-19T04:01:27.892Z,14.87
2019-02-19T04:03:55.661Z,19.97
2019-02-19T04:06:23.654Z,21.53
2019-02-19T04:08:51.465Z,19.07
2019-02-19T04:11:19.449Z,16.80
2019-02-19T04:13:47.422Z,17.20
2019-02-19T04:16:20.966Z,19.53
2019-02-19T04:18:45.039Z,15.83
2019-02-19T04:21:12.807Z,17.80
2019-02-19T04:23:40.784Z,23.00
2019-02-19T04:26:08.549Z,18.20
2019-02-19T04:28:36.522Z,20.70
2019-02-19T04:31:04.493Z,15.40
2019-02-19T04:33:32.464Z,21.87
2019-02-19T04:36:00.544Z,19.80
2019-02-19T04:38:28.317Z,20.00
2019-02-19T04:40:56.283Z,21.10
2019-02-19T04:43:24.097Z,23.17
2019-02-19T04:45:51.923Z,17.83
2019-02-19T04:48:21.739Z,22.37
2019-02-19T04:50:49.516Z,22.93
2019-02-19T04:53:17.302Z,23.93
2019-02-19T04:55:45.253Z,19.63
2019-02-19T04:58:13.032Z,18.40
2019-02-19T05:00:40.854Z,16.57
2019-02-19T05:03:08.870Z,23.37
2019-02-19T05:05:36.845Z,24.30
2019-02-19T05:08:05.836Z,20.13
2019-02-19T05:10:33.807Z,18.60
2019-02-19T05:13:01.783Z,23.67
2019-02-19T05:15:29.683Z,18.80
2019-02-19T05:18:02.953Z,20.60
2019-02-19T05:20:30.785Z,23.57
2019-02-19T05:22:58.695Z,20.57
2019-02-19T05:25:26.527Z,19.00
2019-02-19T05:27:54.437Z,25.60
2019-02-19T05:30:24.152Z,24.30
2019-02-19T05:32:53.178Z,22.67
2019-02-19T05:35:20.965Z,26.17
2019-02-19T05:37:48.900Z,28.07
2019-02-19T05:40:16.671Z,22.20
2019-02-19T05:42:44.491Z,25.83
2019-02-19T05:45:12.623Z,20.57
2019-02-19T05:47:40.423Z,25.33
2019-02-19T05:50:09.520Z,23.97
2019-02-19T05:52:37.317Z,23.27
2019-02-19T05:55:05.888Z,19.10
2019-02-19T05:57:34.924Z,22.00
2019-02-19T06:00:03.362Z,20.17
2019-02-19T06:02:31.281Z,22.17
2019-02-19T06:04:59.041Z,22.80
2019-02-19T06:07:27.017Z,22.10
2019-02-19T06:09:54.799Z,25.37
2019-02-19T06:12:22.614Z,27.60
2019-02-19T06:14:51.660Z,27.33
2019-02-19T06:17:19.636Z,27.30
2019-02-19T06:19:47.605Z,28.90
2019-02-19T06:22:15.583Z,22.13
2019-02-19T06:24:43.559Z,22.37
2019-02-19T06:27:11.475Z,29.00
2019-02-19T06:29:40.478Z,35.17
2019-02-19T06:32:08.270Z,29.80
2019-02-19T06:34:36.370Z,24.40
2019-02-19T06:37:04.282Z,25.23
2019-02-19T06:39:32.222Z,30.63
2019-02-19T06:42:00.013Z,25.50
2019-02-19T06:44:28.003Z,23.50
2019-02-19T06:46:55.949Z,28.93
2019-02-19T06:49:23.697Z,30.80
2019-02-19T06:51:53.558Z,30.47
2019-02-19T06:54:21.487Z,26.33
2019-02-19T06:56:49.253Z,33.37
2019-02-19T06:59:17.233Z,30.63
2019-02-19T07:02:03.651Z,31.53
2019-02-19T07:04:36.762Z,32.47
2019-02-19T07:07:04.543Z,30.70
2019-02-19T07:09:32.311Z,32.50
2019-02-19T07:12:00.342Z,27.60
2019-02-19T07:14:29.230Z,36.77
2019-02-19T07:16:57.000Z,34.23
2019-02-19T07:19:24.974Z,28.50
2019-02-19T07:21:52.745Z,35.10
2019-02-19T07:24:20.709Z,32.37
2019-02-19T07:26:48.490Z,32.13
2019-02-19T07:29:16.469Z,34.20
2019-02-19T07:31:44.580Z,35.80
2019-02-19T07:34:12.349Z,31.53
2019-02-19T07:36:40.369Z,33.10
2019-02-19T07:39:08.443Z,32.97
2019-02-19T07:41:36.212Z,28.77
2019-02-19T07:44:04.294Z,32.20
2019-02-19T07:46:32.298Z,39.53
2019-02-19T07:49:00.084Z,32.33
2019-02-19T07:51:28.003Z,35.10
2019-02-19T07:54:00.388Z,33.53
2019-02-19T07:56:28.157Z,30.37
2019-02-19T07:58:56.127Z,27.00
2019-02-19T08:01:23.891Z,27.63
2019-02-19T08:03:51.820Z,29.93
2019-02-19T08:06:19.736Z,28.63
2019-02-19T08:08:47.512Z,30.03
2019-02-19T08:11:15.480Z,32.63
2019-02-19T08:13:43.258Z,30.73
2019-02-19T08:16:11.044Z,31.23
2019-02-19T08:18:38.986Z,29.90
2019-02-19T08:21:06.762Z,22.10
2019-02-19T08:23:34.565Z,27.23
2019-02-19T08:26:02.496Z,33.27
2019-02-19T08:28:30.885Z,25.23
2019-02-19T08:30:58.675Z,22.90
2019-02-19T08:33:28.503Z,20.97
2019-02-19T08:35:56.257Z,24.10
2019-02-19T08:38:24.036Z,23.83
2019-02-19T08:40:51.980Z,24.17
2019-02-19T08:43:19.751Z,23.63
2019-02-19T08:45:47.526Z,23.03
2019-02-19T08:48:15.486Z,24.10
2019-02-19T08:50:43.244Z,21.77
2019-02-19T08:53:11.229Z,17.73
2019-02-19T08:55:39.031Z,16.33
2019-02-19T08:58:06.985Z,21.73
2019-02-19T09:00:34.997Z,23.43
2019-02-19T09:03:02.829Z,18.83
2019-02-19T09:05:30.794Z,21.33
2019-02-19T09:07:58.593Z,20.60
2019-02-19T09:10:26.476Z,20.80
2019-02-19T09:12:54.377Z,22.60
2019-02-19T09:15:22.143Z,17.00
2019-02-19T09:17:52.239Z,18.10
2019-02-19T09:20:19.752Z,16.10
2019-02-19T09:22:47.738Z,16.33
2019-02-19T09:25:15.514Z,18.00
2019-02-19T09:27:43.479Z,19.00
2019-02-19T09:30:12.223Z,20.70
2019-02-19T09:32:40.147Z,17.33
2019-02-19T09:35:08.234Z,22.00
2019-02-19T09:37:36.188Z,21.97
2019-02-19T09:40:06.590Z,16.33
2019-02-19T09:42:34.526Z,16.60
2019-02-19T09:45:02.470Z,18.53
2019-02-19T09:47:30.400Z,14.53
2019-02-19T09:49:58.309Z,15.67
2019-02-19T09:52:26.339Z,12.43
2019-02-19T09:54:54.120Z,16.10
2019-02-19T09:57:22.031Z,18.80
2019-02-19T09:59:49.999Z,15.53
2019-02-19T10:02:17.776Z,11.97
2019-02-19T10:04:45.573Z,14.93
2019-02-19T10:07:13.499Z,14.43
2019-02-19T10:09:41.280Z,15.07
2019-02-19T10:12:09.052Z,14.20
2019-02-19T10:14:37.333Z,14.37
2019-02-19T10:17:05.132Z,13.47
2019-02-19T10:19:32.942Z,15.60
2019-02-19T10:22:00.945Z,16.27
2019-02-19T10:24:29.844Z,18.83
2019-02-19T10:26:57.691Z,13.47
2019-02-19T10:29:25.679Z,10.93
2019-02-19T10:31:53.450Z,18.17
2019-02-19T10:34:21.373Z,11.50
2019-02-19T10:36:49.295Z,11.90
2019-02-19T10:39:17.064Z,18.40
2019-02-19T10:41:44.863Z,19.43
2019-02-19T10:44:12.812Z,16.03
2019-02-19T10:46:40.808Z,14.27
2019-02-19T10:49:08.753Z,13.20
2019-02-19T10:51:36.728Z,14.53
2019-02-19T10:54:04.502Z,14.93
2019-02-19T10:56:32.290Z,15.43
2019-02-19T10:59:00.240Z,14.90
2019-02-19T11:01:28.004Z,18.83
2019-02-19T11:03:55.785Z,17.17
2019-02-19T11:06:23.757Z,9.90
2019-02-19T11:08:51.672Z,8.47
2019-02-19T11:11:19.448Z,12.57
2019-02-19T11:13:47.363Z,11.87
2019-02-19T11:16:15.135Z,14.77
2019-02-19T11:18:43.164Z,11.63
2019-02-19T11:21:19.053Z,11.90
2019-02-19T11:23:40.622Z,11.77
2019-02-19T11:26:08.591Z,12.27
2019-02-19T11:28:36.368Z,12.93
2019-02-19T11:31:04.266Z,9.90
2019-02-19T11:33:35.231Z,12.40
2019-02-19T11:36:03.070Z,8.63
2019-02-19T11:38:30.858Z,8.97
2019-02-19T11:40:58.751Z,14.90
2019-02-19T11:43:26.540Z,11.60
2019-02-19T11:45:54.364Z,9.53
2019-02-19T11:48:22.271Z,16.13
2019-02-19T11:50:50.076Z,11.63
2019-02-19T11:53:17.878Z,12.57
2019-02-19T11:55:45.887Z,11.00
2019-02-19T11:58:13.681Z,14.50
2019-02-19T12:00:41.965Z,11.13
2019-02-19T12:03:09.756Z,11.20
2019-02-19T12:05:37.879Z,7.93
2019-02-19T12:08:05.652Z,8.70
2019-02-19T12:10:33.570Z,13.70
2019-02-19T12:13:01.509Z,14.57
2019-02-19T12:15:35.290Z,13.63
2019-02-19T12:17:59.002Z,13.47
2019-02-19T12:20:27.080Z,10.73
2019-02-19T12:22:54.878Z,11.33
2019-02-19T12:25:22.673Z,11.43
2019-02-19T12:27:50.565Z,9.57
2019-02-19T12:30:18.517Z,11.57
2019-02-19T12:32:46.293Z,10.63
2019-02-19T12:35:15.863Z,7.63
2019-02-19T12:37:43.794Z,11.57
2019-02-19T12:40:11.865Z,12.70
2019-02-19T12:42:39.811Z,9.63
2019-02-19T12:45:09.927Z,11.00
2019-02-19T12:47:37.836Z,9.97
2019-02-19T12:50:08.412Z,13.10
2019-02-19T12:52:36.202Z,10.10
2019-02-19T12:55:04.569Z,11.90
2019-02-19T12:57:32.349Z,11.10
2019-02-19T13:00:00.217Z,9.70
2019-02-19T13:02:28.239Z,9.53
2019-02-19T13:04:56.221Z,9.57
2019-02-19T13:07:24.085Z,7.37
2019-02-19T13:09:53.999Z,13.57
2019-02-19T13:12:21.777Z,14.23
2019-02-19T13:14:49.746Z,10.97
2019-02-19T13:17:17.540Z,13.27
2019-02-19T13:19:45.488Z,9.33
2019-02-19T13:22:13.287Z,9.80
2019-02-19T13:24:43.151Z,7.97
2019-02-19T13:27:11.148Z,8.93
2019-02-19T13:29:39.032Z,8.43
2019-02-19T13:32:07.047Z,9.53
2019-02-19T13:34:35.139Z,8.40
2019-02-19T13:37:02.974Z,8.57
2019-02-19T13:39:30.916Z,7.07
2019-02-19T13:41:58.890Z,11.00
2019-02-19T13:44:26.697Z,9.23
2019-02-19T13:46:56.271Z,6.13
2019-02-19T13:49:24.237Z,6.70
2019-02-19T13:51:53.913Z,8.63
2019-02-19T13:54:29.761Z,6.40
2019-02-19T13:56:57.709Z,7.80
2019-02-19T13:59:25.501Z,8.10
2019-02-19T14:01:53.420Z,8.53
2019-02-19T14:04:21.396Z,8.93
2019-02-19T14:06:49.199Z,10.90
2019-02-19T14:09:17.170Z,10.47
2019-02-19T14:11:45.119Z,9.17
2019-02-19T14:14:36.614Z,7.00
2019-02-19T14:17:07.376Z,12.47
2019-02-19T14:20:00.892Z,9.07
2019-02-19T14:22:47.104Z,7.60
2019-02-19T14:25:33.429Z,7.37
2019-02-19T14:28:19.796Z,13.57
2019-02-19T14:31:15.903Z,11.30
2019-02-19T14:34:09.381Z,7.77
2019-02-19T14:37:01.096Z,11.03
2019-02-19T14:39:48.696Z,12.57
2019-02-19T14:42:51.183Z,14.23
2019-02-19T14:45:41.796Z,7.50
2019-02-19T14:48:28.310Z,12.73
2019-02-19T14:51:25.083Z,12.30
2019-02-19T14:54:01.870Z,9.07
2019-02-19T14:56:55.508Z,9.97
2019-02-19T14:59:39.587Z,9.70
2019-02-19T15:02:26.961Z,7.90
2019-02-19T15:05:13.384Z,8.03
2019-02-19T15:08:02.774Z,12.17
2019-02-19T15:10:49.138Z,11.90
2019-02-19T15:13:35.399Z,9.53
2019-02-19T15:16:13.298Z,10.60
2019-02-19T15:19:06.723Z,11.70
2019-02-19T15:21:54.280Z,14.20
2019-02-19T15:24:44.841Z,11.63
2019-02-19T15:27:21.348Z,8.57
2019-02-19T15:30:06.630Z,10.37
2019-02-19T15:32:52.889Z,12.43
2019-02-19T15:35:43.275Z,10.60
2019-02-19T15:38:19.947Z,8.30
2019-02-19T15:40:56.642Z,11.90
2019-02-19T15:43:28.922Z,8.53
2019-02-19T15:46:18.775Z,7.30
2019-02-19T15:49:04.690Z,10.97
2019-02-19T15:52:04.169Z,7.67
2019-02-19T15:54:48.488Z,12.13
2019-02-19T15:57:34.506Z,7.50
2019-02-19T16:00:21.580Z,6.53
2019-02-19T16:03:09.077Z,8.40
2019-02-19T16:05:57.041Z,6.63
2019-02-19T16:08:50.606Z,8.73
2019-02-19T16:11:33.901Z,7.30
2019-02-19T16:14:27.516Z,10.10
2019-02-19T16:17:20.028Z,7.00
2019-02-19T16:20:06.402Z,9.80
2019-02-19T16:22:56.882Z,10.57
2019-02-19T16:25:43.137Z,13.03
2019-02-19T16:28:30.513Z,7.63
2019-02-19T16:31:05.746Z,7.83
2019-02-19T16:33:41.166Z,8.93
2019-02-19T16:36:23.780Z,8.17
2019-02-19T16:38:59.202Z,8.97
2019-02-19T16:41:46.679Z,7.93
2019-02-19T16:44:29.959Z,9.00
2019-02-19T16:47:29.274Z,9.40
2019-02-19T16:50:12.876Z,5.30
2019-02-19T16:53:00.373Z,14.13
2019-02-19T16:55:47.758Z,7.93
2019-02-19T16:58:27.143Z,11.03
2019-02-19T17:01:02.733Z,12.33
2019-02-19T17:03:49.598Z,8.67
2019-02-19T17:06:28.425Z,8.57
2019-02-19T17:09:14.642Z,14.23
2019-02-19T17:12:00.997Z,11.17
2019-02-19T17:14:48.389Z,12.40
2019-02-19T17:17:41.616Z,7.93
2019-02-19T17:20:38.117Z,10.80
2019-02-19T17:23:31.478Z,7.73
2019-02-19T17:26:09.757Z,12.80
2019-02-19T17:28:45.809Z,7.53
2019-02-19T17:31:26.700Z,9.17
2019-02-19T17:34:20.167Z,13.53
2019-02-19T17:37:16.485Z,14.33
2019-02-19T17:39:53.533Z,12.80
2019-02-19T17:42:37.397Z,11.70
2019-02-19T17:45:37.989Z,11.23
2019-02-19T17:48:25.374Z,9.50
2019-02-19T17:51:11.267Z,8.53
2019-02-19T17:53:58.678Z,14.70
2019-02-19T17:56:48.671Z,8.33
2019-02-19T17:59:26.403Z,10.60
2019-02-19T18:02:14.197Z,10.33
2019-02-19T18:04:57.642Z,12.10
2019-02-19T18:07:43.609Z,7.70
2019-02-19T18:10:27.469Z,12.70
2019-02-19T18:13:13.320Z,14.63
2019-02-19T18:15:59.507Z,13.93
2019-02-19T18:18:33.427Z,10.03
2019-02-19T18:21:01.225Z,8.57
2019-02-19T18:23:30.135Z,9.23
2019-02-19T18:25:58.263Z,8.60
2019-02-19T18:28:26.074Z,13.53
2019-02-19T18:30:53.857Z,13.40
2019-02-19T18:33:21.733Z,7.73
2019-02-19T18:35:49.525Z,7.87
2019-02-19T18:38:18.860Z,5.20
2019-02-19T18:40:46.652Z,11.37
2019-02-19T18:43:14.411Z,11.83
2019-02-19T18:45:42.357Z,12.40
2019-02-19T18:48:10.259Z,6.47
2019-02-19T18:50:38.225Z,8.93
2019-02-19T18:53:06.332Z,7.97
2019-02-19T18:55:34.122Z,12.13
2019-02-19T18:58:02.235Z,8.00
2019-02-19T19:00:30.207Z,12.27
2019-02-19T19:02:57.999Z,10.23
2019-02-19T19:05:25.960Z,13.30
2019-02-19T19:07:54.038Z,12.93
2019-02-19T19:10:21.992Z,15.33
2019-02-19T19:12:49.973Z,17.37
2019-02-19T19:15:17.946Z,11.80
2019-02-19T19:17:45.985Z,10.40
2019-02-19T19:20:13.793Z,9.93
2019-02-19T19:22:41.858Z,7.93
2019-02-19T19:25:09.831Z,5.90
2019-02-19T19:27:37.751Z,12.93
2019-02-19T19:30:08.003Z,10.27
2019-02-19T19:32:35.935Z,9.20
2019-02-19T19:35:04.507Z,12.70
2019-02-19T19:37:32.374Z,12.17
2019-02-19T19:40:00.351Z,7.37
2019-02-19T19:42:28.150Z,10.23
2019-02-19T19:44:55.905Z,12.13
2019-02-19T19:47:23.805Z,12.27
2019-02-19T19:49:51.710Z,9.27
2019-02-19T19:52:19.723Z,14.67
2019-02-19T19:54:51.186Z,10.83
2019-02-19T19:57:18.974Z,12.00
2019-02-19T19:59:46.919Z,10.77
2019-02-19T20:02:14.898Z,18.73
2019-02-19T20:04:42.933Z,10.87
2019-02-19T20:07:10.752Z,13.53
2019-02-19T20:09:38.695Z,7.90
2019-02-19T20:12:06.500Z,10.43
2019-02-19T20:14:34.266Z,14.73
2019-02-19T20:17:02.198Z,14.27
2019-02-19T20:19:29.998Z,13.83
2019-02-19T20:21:57.883Z,14.43
2019-02-19T20:24:25.923Z,10.50
2019-02-19T20:26:53.689Z,16.20
2019-02-19T20:29:21.765Z,13.37
2019-02-19T20:31:49.629Z,12.90
2019-02-19T20:34:17.604Z,11.10
2019-02-19T20:36:45.413Z,11.10
2019-02-19T20:39:13.202Z,14.17
2019-02-19T20:41:41.210Z,11.40
2019-02-19T20:44:09.004Z,18.17
2019-02-19T20:46:36.962Z,6.93
2019-02-19T20:49:04.743Z,7.10
2019-02-19T20:51:36.315Z,10.33
2019-02-19T20:54:02.411Z,9.23
2019-02-19T20:56:30.667Z,10.53
2019-02-19T20:59:02.510Z,11.33
2019-02-19T21:01:30.563Z,12.70
2019-02-19T21:03:59.827Z,13.13
2019-02-19T21:06:27.822Z,10.90
2019-02-19T21:08:55.625Z,10.03
2019-02-19T21:11:23.443Z,12.37
2019-02-19T21:13:51.418Z,13.27
2019-02-19T21:16:38.873Z,11.50
2019-02-19T21:19:06.728Z,12.77
2019-02-19T21:21:34.662Z,12.73
2019-02-19T21:24:02.703Z,9.17
2019-02-19T21:26:32.102Z,13.60
2019-02-19T21:29:00.076Z,18.13
2019-02-19T21:31:27.871Z,12.50
2019-02-19T21:33:55.879Z,8.03
2019-02-19T21:36:23.731Z,13.13
2019-02-19T21:38:52.514Z,9.17
2019-02-19T21:41:20.428Z,11.53
2019-02-19T21:43:48.256Z,11.50
2019-02-19T21:46:16.401Z,14.73
2019-02-19T21:48:48.170Z,12.23
2019-02-19T21:51:14.261Z,14.83
2019-02-19T21:53:42.228Z,12.57
2019-02-19T21:56:10.194Z,10.90
2019-02-19T21:58:37.982Z,12.40
2019-02-19T22:01:07.348Z,12.20
2019-02-19T22:03:35.504Z,7.77
2019-02-19T22:06:03.435Z,11.53
2019-02-19T22:08:31.197Z,12.73
2019-02-19T22:11:00.297Z,19.30
2019-02-19T22:13:29.120Z,10.20
2019-02-19T22:15:56.942Z,9.20
2019-02-19T22:18:24.930Z,8.90
2019-02-19T22:21:04.077Z,12.83
2019-02-19T22:23:32.055Z,12.77
2019-02-19T22:25:59.850Z,14.47
2019-02-19T22:28:27.700Z,11.27
2019-02-19T22:30:55.664Z,13.53
2019-02-19T22:33:23.516Z,11.60
2019-02-19T22:35:52.577Z,10.10
2019-02-19T22:38:20.606Z,10.93
2019-02-19T22:40:55.256Z,17.73
2019-02-19T22:43:19.639Z,11.53
2019-02-19T22:45:47.522Z,16.53
2019-02-19T22:48:15.810Z,13.07
2019-02-19T22:50:43.692Z,13.83
2019-02-19T22:53:29.914Z,13.93
2019-02-19T22:56:03.748Z,16.27
2019-02-19T22:58:31.638Z,13.43
2019-02-19T23:01:28.436Z,16.60
2019-02-19T23:03:56.736Z,18.83
2019-02-19T23:06:24.558Z,11.30
2019-02-19T23:08:52.573Z,17.93
2019-02-19T23:11:20.536Z,12.87
2019-02-19T23:13:48.331Z,13.43
2019-02-19T23:16:16.115Z,14.60
2019-02-19T23:18:44.144Z,12.30
2019-02-19T23:21:11.914Z,11.03
2019-02-19T23:23:39.904Z,16.73
2019-02-19T23:26:07.664Z,13.93
2019-02-19T23:28:35.422Z,11.77
2019-02-19T23:31:03.400Z,12.07
2019-02-19T23:33:31.368Z,14.33
2019-02-19T23:36:06.419Z,19.37
2019-02-19T23:38:35.498Z,16.63
2019-02-19T23:41:03.476Z,19.47
2019-02-19T23:43:31.251Z,13.13
2019-02-19T23:45:59.048Z,13.50
2019-02-19T23:48:27.322Z,20.17
2019-02-19T23:50:55.324Z,17.10
2019-02-19T23:53:23.109Z,15.13
2019-02-19T23:55:51.232Z,15.77
2019-02-19T23:58:19.194Z,14.40
